createdAt,value
2023-01-18T00:01:05.740Z,29.27
2023-01-18T00:03:51.226Z,15.57
2023-01-18T00:06:36.749Z,13.65
2023-01-18T00:09:22.103Z,12.52
2023-01-18T00:12:07.445Z,12.80
2023-01-18T00:14:52.884Z,13.90
2023-01-18T00:17:53.310Z,13.40
2023-01-18T00:20:39.147Z,14.15
2023-01-18T00:23:24.425Z,10.02
2023-01-18T00:26:11.433Z,16.48
2023-01-18T00:28:57.299Z,10.52
2023-01-18T00:31:43.306Z,10.68
2023-01-18T00:34:28.775Z,12.57
2023-01-18T00:37:14.205Z,9.95
2023-01-18T00:39:59.835Z,11.30
2023-01-18T00:43:03.816Z,15.32
2023-01-18T00:45:49.405Z,11.95
2023-01-18T00:48:36.057Z,12.57
2023-01-18T00:51:24.787Z,14.88
2023-01-18T00:54:10.163Z,12.40
2023-01-18T00:56:55.645Z,13.45
2023-01-18T00:59:41.121Z,12.75
2023-01-18T01:02:26.451Z,14.30
2023-01-18T01:05:38.704Z,9.85
2023-01-18T01:08:24.103Z,9.65
2023-01-18T01:11:12.146Z,11.35
2023-01-18T01:14:16.159Z,10.18
2023-01-18T01:17:20.177Z,12.52
2023-01-18T01:20:24.462Z,10.43
2023-01-18T01:23:37.767Z,11.20
2023-01-18T01:26:23.025Z,11.75
2023-01-18T01:29:08.716Z,8.85
2023-01-18T01:31:53.961Z,10.68
2023-01-18T01:34:39.483Z,14.90
2023-01-18T01:37:24.799Z,15.07
2023-01-18T01:40:11.311Z,18.92
2023-01-18T01:42:57.027Z,14.82
2023-01-18T01:45:42.790Z,20.70
2023-01-18T01:48:28.149Z,12.80
2023-01-18T01:51:15.233Z,16.77
2023-01-18T01:54:03.768Z,15.85
2023-01-18T01:56:53.718Z,11.18
2023-01-18T01:59:44.412Z,13.65
2023-01-18T02:02:32.809Z,12.75
2023-01-18T02:05:18.723Z,11.68
2023-01-18T02:08:06.174Z,10.82
2023-01-18T02:10:52.863Z,10.18
2023-01-18T02:13:38.355Z,9.20
2023-01-18T02:16:45.512Z,6.93
2023-01-18T02:19:43.293Z,8.07
2023-01-18T02:23:07.485Z,6.63
2023-01-18T02:26:29.895Z,12.05
2023-01-18T02:29:17.674Z,6.88
2023-01-18T02:32:42.129Z,8.95
2023-01-18T02:35:43.116Z,6.78
2023-01-18T02:38:37.963Z,7.13
2023-01-18T02:41:49.604Z,10.80
2023-01-18T02:45:00.767Z,7.97
2023-01-18T02:47:46.756Z,6.68
2023-01-18T02:50:32.275Z,9.00
2023-01-18T02:53:18.274Z,8.15
2023-01-18T02:56:26.203Z,7.53
2023-01-18T02:59:38.108Z,8.68
2023-01-18T03:02:26.391Z,7.25
2023-01-18T03:05:12.203Z,8.13
2023-01-18T03:08:11.356Z,5.85
2023-01-18T03:11:06.340Z,5.95
2023-01-18T03:14:01.645Z,8.55
2023-01-18T03:16:58.077Z,6.07
2023-01-18T03:20:07.234Z,7.30
2023-01-18T03:23:20.137Z,8.10
2023-01-18T03:26:16.419Z,6.72
2023-01-18T03:29:23.096Z,5.45
2023-01-18T03:32:31.561Z,5.90
2023-01-18T03:35:19.182Z,6.25
2023-01-18T03:38:05.019Z,5.75
2023-01-18T03:40:50.348Z,9.32
2023-01-18T03:43:37.818Z,7.45
2023-01-18T03:46:26.494Z,14.55
2023-01-18T03:49:12.995Z,8.10
2023-01-18T03:52:01.806Z,6.38
2023-01-18T03:55:05.353Z,5.80
2023-01-18T03:57:59.882Z,6.15
2023-01-18T04:00:45.638Z,6.95
2023-01-18T04:03:34.942Z,4.65
2023-01-18T04:06:22.929Z,5.20
2023-01-18T04:09:08.343Z,6.47
2023-01-18T04:11:54.032Z,6.68
2023-01-18T04:14:39.233Z,8.35
2023-01-18T04:17:24.717Z,7.40
2023-01-18T04:20:10.581Z,6.78
2023-01-18T04:22:56.774Z,5.05
2023-01-18T04:25:50.041Z,6.63
2023-01-18T04:28:35.872Z,6.70
2023-01-18T04:31:22.028Z,5.80
2023-01-18T04:34:07.749Z,7.00
2023-01-18T04:36:53.597Z,5.70
2023-01-18T04:39:39.047Z,9.32
2023-01-18T04:42:25.810Z,13.23
2023-01-18T04:45:14.190Z,12.45
2023-01-18T04:47:59.333Z,7.85
2023-01-18T04:50:46.578Z,7.18
2023-01-18T04:53:34.933Z,8.68
2023-01-18T04:56:20.264Z,8.13
2023-01-18T04:59:06.225Z,6.32
2023-01-18T05:01:51.638Z,6.13
2023-01-18T05:04:37.105Z,7.10
2023-01-18T05:07:25.253Z,8.00
2023-01-18T05:10:10.981Z,9.30
2023-01-18T05:12:56.593Z,9.60
2023-01-18T05:15:42.604Z,8.45
2023-01-18T05:18:29.342Z,7.20
2023-01-18T05:21:15.731Z,8.50
2023-01-18T05:24:01.489Z,6.88
2023-01-18T05:26:46.629Z,8.27
2023-01-18T05:29:32.008Z,9.00
2023-01-18T05:32:17.699Z,7.63
2023-01-18T05:35:07.157Z,6.65
2023-01-18T05:37:52.860Z,5.35
2023-01-18T05:40:38.315Z,8.45
2023-01-18T05:43:25.826Z,10.23
2023-01-18T05:46:11.278Z,11.05
2023-01-18T05:48:58.346Z,7.43
2023-01-18T05:51:43.971Z,10.98
2023-01-18T05:54:29.357Z,6.13
2023-01-18T05:57:14.857Z,24.25
2023-01-18T06:00:00.305Z,13.35
2023-01-18T06:02:45.553Z,12.85
2023-01-18T06:05:31.195Z,7.85
2023-01-18T06:08:16.595Z,9.13
2023-01-18T06:11:02.235Z,8.63
2023-01-18T06:13:47.832Z,10.88
2023-01-18T06:16:33.103Z,10.45
2023-01-18T06:19:18.815Z,11.65
2023-01-18T06:22:04.179Z,11.57
2023-01-18T06:24:50.169Z,15.05
2023-01-18T06:27:35.711Z,14.43
2023-01-18T06:30:22.040Z,18.02
2023-01-18T06:33:08.585Z,10.05
2023-01-18T06:35:53.957Z,11.00
2023-01-18T06:38:39.175Z,22.80
2023-01-18T06:41:24.554Z,15.27
2023-01-18T06:44:10.011Z,11.85
2023-01-18T06:46:55.379Z,8.20
2023-01-18T06:49:40.863Z,7.65
2023-01-18T06:52:26.279Z,5.88
2023-01-18T06:55:13.010Z,6.82
2023-01-18T06:57:58.365Z,8.30
2023-01-18T07:00:43.699Z,5.65
2023-01-18T07:03:30.742Z,6.07
2023-01-18T07:06:16.255Z,7.78
2023-01-18T07:09:01.618Z,7.72
2023-01-18T07:11:47.003Z,7.93
2023-01-18T07:14:32.512Z,7.38
2023-01-18T07:17:17.835Z,8.27
2023-01-18T07:20:03.414Z,8.40
2023-01-18T07:22:52.711Z,9.15
2023-01-18T07:25:38.167Z,8.00
2023-01-18T07:28:23.671Z,10.65
2023-01-18T07:31:09.318Z,9.80
2023-01-18T07:33:54.947Z,8.18
2023-01-18T07:36:41.866Z,7.28
2023-01-18T07:39:27.573Z,8.82
2023-01-18T07:42:13.132Z,5.47
2023-01-18T07:44:58.547Z,7.18
2023-01-18T07:47:46.370Z,7.72
2023-01-18T07:50:33.570Z,9.10
2023-01-18T07:53:20.485Z,11.02
2023-01-18T07:56:09.431Z,12.35
2023-01-18T07:58:55.647Z,10.52
2023-01-18T08:01:41.205Z,8.77
2023-01-18T08:04:26.750Z,10.50
2023-01-18T08:07:12.053Z,12.00
2023-01-18T08:09:58.106Z,14.70
2023-01-18T08:12:44.162Z,17.10
2023-01-18T08:15:30.021Z,18.17
2023-01-18T08:18:15.688Z,12.98
2023-01-18T08:21:01.456Z,9.43
2023-01-18T08:23:46.851Z,14.75
2023-01-18T08:26:34.125Z,17.45
2023-01-18T08:29:19.802Z,12.88
2023-01-18T08:32:05.518Z,15.43
2023-01-18T08:34:51.529Z,21.90
2023-01-18T08:37:36.773Z,18.58
2023-01-18T08:40:26.664Z,11.23
2023-01-18T08:43:12.336Z,11.32
2023-01-18T08:45:57.593Z,14.57
2023-01-18T08:48:43.828Z,9.50
2023-01-18T08:51:29.454Z,7.90
2023-01-18T08:54:14.818Z,9.43
2023-01-18T08:57:02.443Z,7.47
2023-01-18T08:59:47.918Z,10.30
2023-01-18T09:02:33.358Z,8.10
2023-01-18T09:05:18.855Z,7.18
2023-01-18T09:08:08.403Z,29.27
2023-01-18T09:10:54.234Z,15.90
2023-01-18T09:13:58.589Z,16.95
2023-01-18T09:16:44.473Z,17.35
2023-01-18T09:19:30.200Z,14.38
2023-01-18T09:22:15.849Z,8.15
2023-01-18T09:25:01.235Z,26.10
2023-01-18T09:27:46.869Z,11.10
2023-01-18T09:30:33.124Z,9.75
2023-01-18T09:33:18.836Z,7.15
2023-01-18T09:36:07.823Z,7.72
2023-01-18T09:38:55.500Z,15.35
2023-01-18T09:41:44.763Z,15.50
2023-01-18T09:44:35.082Z,11.43
2023-01-18T09:47:26.962Z,8.57
2023-01-18T09:50:20.865Z,10.68
2023-01-18T09:53:34.652Z,8.90
2023-01-18T09:56:39.205Z,8.15
2023-01-18T09:59:35.686Z,8.93
2023-01-18T10:02:24.336Z,14.35
2023-01-18T10:05:21.472Z,34.08
2023-01-18T10:08:16.640Z,31.15
2023-01-18T10:11:36.650Z,22.95
2023-01-18T10:14:28.601Z,14.45
2023-01-18T10:17:24.024Z,9.75
2023-01-18T10:20:20.767Z,9.52
2023-01-18T10:23:09.253Z,8.38
2023-01-18T10:26:01.009Z,7.47
2023-01-18T10:28:56.309Z,8.32
2023-01-18T10:31:51.156Z,9.10
2023-01-18T10:34:41.750Z,8.68
2023-01-18T10:37:27.369Z,5.43
2023-01-18T10:40:14.686Z,14.18
2023-01-18T10:43:02.482Z,10.13
2023-01-18T10:45:48.319Z,9.43
2023-01-18T10:48:34.871Z,8.38
2023-01-18T10:51:29.284Z,7.03
2023-01-18T10:54:19.028Z,7.75
2023-01-18T10:57:05.761Z,8.93
2023-01-18T10:59:53.692Z,6.18
2023-01-18T11:02:40.572Z,10.70
2023-01-18T11:05:34.171Z,6.65
2023-01-18T11:08:32.654Z,7.00
2023-01-18T11:34:38.237Z,8.57
2023-01-18T11:37:37.496Z,10.07
2023-01-18T11:40:27.987Z,8.77
2023-01-18T11:43:20.430Z,12.57
2023-01-18T11:49:09.692Z,10.65
2023-01-18T11:52:00.303Z,10.80
2023-01-18T11:54:54.188Z,12.98
2023-01-18T11:57:39.442Z,12.60
2023-01-18T12:00:28.256Z,17.92
2023-01-18T12:03:33.850Z,20.13
2023-01-18T12:06:27.224Z,18.52
2023-01-18T12:09:37.489Z,16.35
2023-01-18T12:12:53.483Z,16.77
2023-01-18T12:15:49.505Z,16.02
2023-01-18T12:19:01.541Z,15.55
2023-01-18T12:21:56.441Z,11.90
2023-01-18T12:25:00.207Z,7.18
2023-01-18T12:28:04.882Z,9.07
2023-01-18T12:30:57.521Z,4.93
2023-01-18T12:33:46.373Z,4.15
2023-01-18T12:36:51.906Z,4.07
2023-01-18T12:40:06.494Z,2.88
2023-01-18T12:43:01.313Z,3.05
2023-01-18T12:46:10.261Z,5.32
2023-01-18T12:49:02.041Z,4.63
2023-01-18T12:51:50.550Z,5.03
2023-01-18T12:54:40.998Z,4.93
2023-01-18T12:57:29.834Z,18.20
2023-01-18T13:00:23.097Z,25.85
2023-01-18T13:03:14.584Z,63.17
2023-01-18T13:06:02.429Z,38.73
2023-01-18T13:09:04.938Z,29.77
2023-01-18T13:15:01.844Z,9.13
2023-01-18T13:18:06.457Z,5.05
2023-01-18T13:21:06.348Z,5.95
2023-01-18T13:24:00.537Z,3.83
2023-01-18T13:26:46.882Z,3.95
2023-01-18T13:29:32.333Z,3.90
2023-01-18T13:32:26.487Z,3.05
2023-01-18T13:35:25.851Z,3.63
2023-01-18T13:38:13.367Z,3.65
2023-01-18T13:41:02.780Z,2.92
2023-01-18T13:43:51.584Z,5.50
2023-01-18T13:46:39.336Z,3.70
2023-01-18T13:49:38.244Z,2.80
2023-01-18T13:52:35.828Z,1.40
2023-01-18T13:55:31.362Z,3.80
2023-01-18T13:58:35.006Z,2.95
2023-01-18T14:01:23.796Z,5.60
2023-01-18T14:04:21.803Z,3.95
2023-01-18T14:07:16.835Z,3.92
2023-01-18T14:10:08.050Z,3.13
2023-01-18T14:12:55.747Z,3.50
2023-01-18T14:15:53.327Z,5.22
2023-01-18T14:18:39.379Z,8.25
2023-01-18T14:21:38.071Z,12.48
2023-01-18T14:25:10.545Z,5.63
2023-01-18T14:28:13.480Z,4.17
2023-01-18T14:31:01.722Z,4.57
2023-01-18T14:33:47.990Z,5.53
2023-01-18T14:36:36.142Z,3.50
2023-01-18T14:39:22.492Z,2.15
2023-01-18T14:42:12.043Z,1.50
2023-01-18T14:44:59.170Z,2.05
2023-01-18T14:47:47.741Z,0.70
2023-01-18T14:50:46.983Z,1.25
2023-01-18T14:53:38.545Z,0.88
2023-01-18T14:56:26.373Z,1.42
2023-01-18T14:59:24.730Z,1.45
2023-01-18T15:02:19.001Z,0.60
2023-01-18T15:05:13.606Z,1.88
2023-01-18T15:07:59.582Z,1.05
2023-01-18T15:10:46.039Z,0.73
2023-01-18T15:13:33.012Z,3.47
2023-01-18T15:16:21.814Z,1.40
2023-01-18T15:19:14.185Z,0.90
2023-01-18T15:22:02.167Z,1.33
2023-01-18T15:24:47.829Z,1.20
2023-01-18T15:27:33.614Z,1.08
2023-01-18T15:30:22.530Z,1.70
2023-01-18T15:33:09.977Z,0.93
2023-01-18T15:36:01.186Z,1.52
2023-01-18T15:38:46.711Z,1.92
2023-01-18T15:41:33.235Z,2.00
2023-01-18T15:44:35.767Z,1.45
2023-01-18T15:47:29.164Z,1.42
2023-01-18T15:50:23.229Z,1.88
2023-01-18T15:53:34.077Z,1.90
2023-01-18T15:56:24.465Z,1.20
2023-01-18T15:59:10.295Z,1.20
2023-01-18T16:02:08.353Z,0.90
2023-01-18T16:05:21.130Z,1.65
2023-01-18T16:08:20.165Z,8.15
2023-01-18T16:11:06.173Z,4.10
2023-01-18T16:14:00.979Z,1.95
2023-01-18T16:16:47.261Z,2.30
2023-01-18T16:19:44.313Z,2.20
2023-01-18T16:22:34.023Z,2.75
2023-01-18T16:25:22.995Z,2.05
2023-01-18T16:28:08.618Z,1.30
2023-01-18T16:30:55.187Z,0.95
2023-01-18T16:33:40.703Z,2.13
2023-01-18T16:36:29.707Z,1.17
2023-01-18T16:39:18.805Z,0.93
2023-01-18T16:42:04.387Z,0.65
2023-01-18T16:44:49.781Z,0.80
2023-01-18T16:47:35.171Z,0.73
2023-01-18T16:50:20.792Z,1.00
2023-01-18T16:53:06.646Z,0.90
2023-01-18T16:55:53.021Z,1.13
2023-01-18T16:58:38.345Z,1.13
2023-01-18T17:01:24.402Z,1.38
2023-01-18T17:04:12.654Z,1.05
2023-01-18T17:06:58.144Z,2.53
2023-01-18T17:09:48.816Z,1.10
2023-01-18T17:12:34.753Z,1.23
2023-01-18T17:15:20.303Z,1.42
2023-01-18T17:18:08.212Z,1.83
2023-01-18T17:20:55.220Z,1.17
2023-01-18T17:23:40.530Z,1.27
2023-01-18T17:26:26.033Z,0.45
2023-01-18T17:29:17.822Z,0.82
2023-01-18T17:32:03.415Z,2.13
2023-01-18T17:34:49.352Z,1.00
2023-01-18T17:37:35.603Z,2.15
2023-01-18T17:40:30.780Z,0.98
2023-01-18T17:43:32.130Z,0.70
2023-01-18T17:46:19.917Z,1.27
2023-01-18T17:49:05.718Z,0.77
2023-01-18T17:51:51.070Z,0.65
2023-01-18T17:54:36.338Z,2.15
2023-01-18T17:57:21.989Z,0.90
2023-01-18T18:00:12.183Z,1.95
2023-01-18T18:03:01.072Z,1.83
2023-01-18T18:05:47.091Z,2.00
2023-01-18T18:08:33.984Z,1.35
2023-01-18T18:11:19.328Z,1.45
2023-01-18T18:14:04.905Z,1.83
2023-01-18T18:16:50.156Z,0.60
2023-01-18T18:19:35.551Z,1.85
2023-01-18T18:22:21.516Z,2.03
2023-01-18T18:25:07.453Z,2.15
2023-01-18T18:27:52.620Z,1.70
2023-01-18T18:30:38.183Z,2.22
2023-01-18T18:33:24.803Z,1.75
2023-01-18T18:36:10.251Z,1.85
2023-01-18T18:38:55.564Z,2.90
2023-01-18T18:41:43.272Z,2.30
2023-01-18T18:44:29.555Z,2.38
2023-01-18T18:47:14.823Z,4.20
2023-01-18T18:50:00.607Z,1.60
2023-01-18T18:52:45.835Z,2.08
2023-01-18T18:55:32.061Z,1.80
2023-01-18T18:58:17.874Z,1.58
2023-01-18T19:01:03.809Z,1.15
2023-01-18T19:03:51.176Z,2.65
2023-01-18T19:06:38.310Z,2.88
2023-01-18T19:09:23.936Z,2.65
2023-01-18T19:12:09.538Z,8.25
2023-01-18T19:14:54.957Z,4.20
2023-01-18T19:17:40.355Z,7.70
2023-01-18T19:20:25.836Z,4.93
2023-01-18T19:23:11.674Z,2.65
2023-01-18T19:25:57.289Z,5.55
2023-01-18T19:28:42.980Z,2.88
2023-01-18T19:31:28.592Z,5.57
2023-01-18T19:34:18.689Z,1.95
2023-01-18T19:37:05.535Z,3.20
2023-01-18T19:39:51.064Z,3.00
2023-01-18T19:42:36.816Z,2.97
2023-01-18T19:45:28.122Z,2.17
2023-01-18T19:48:15.329Z,2.40
2023-01-18T19:51:20.718Z,3.03
2023-01-18T19:54:07.967Z,1.75
2023-01-18T19:56:53.550Z,3.95
2023-01-18T19:59:39.049Z,4.43
2023-01-18T20:02:24.747Z,3.22
2023-01-18T20:05:12.492Z,2.83
2023-01-18T20:07:58.379Z,2.58
2023-01-18T20:10:44.399Z,4.00
2023-01-18T20:13:30.144Z,3.10
2023-01-18T20:16:17.803Z,7.97
2023-01-18T20:19:03.297Z,11.10
2023-01-18T20:21:49.704Z,7.80
2023-01-18T20:24:35.271Z,10.07
2023-01-18T20:27:20.804Z,14.25
2023-01-18T20:30:06.795Z,16.83
2023-01-18T20:32:52.662Z,20.02
2023-01-18T20:35:39.162Z,13.10
2023-01-18T20:38:25.292Z,11.15
2023-01-18T20:41:10.971Z,10.77
2023-01-18T20:43:56.466Z,14.05
2023-01-18T20:46:41.949Z,11.55
2023-01-18T20:49:36.958Z,6.28
2023-01-18T20:52:23.722Z,5.03
2023-01-18T20:55:12.831Z,4.43
2023-01-18T20:57:58.323Z,3.58
2023-01-18T21:00:44.280Z,6.55
2023-01-18T21:03:29.776Z,4.72
2023-01-18T21:06:16.060Z,5.03
2023-01-18T21:09:01.686Z,4.93
2023-01-18T21:11:46.919Z,5.88
2023-01-18T21:14:32.824Z,4.05
2023-01-18T21:17:18.368Z,5.28
2023-01-18T21:20:04.414Z,7.97
2023-01-18T21:22:50.067Z,8.98
2023-01-18T21:25:35.317Z,11.45
2023-01-18T21:28:21.145Z,8.25
2023-01-18T21:31:07.939Z,5.18
2023-01-18T21:33:54.683Z,6.97
2023-01-18T21:36:40.426Z,7.88
2023-01-18T21:39:25.883Z,11.80
2023-01-18T21:42:30.364Z,9.40
2023-01-18T21:45:34.532Z,14.38
2023-01-18T21:48:20.056Z,21.98
2023-01-18T21:51:24.544Z,18.08
2023-01-18T21:54:17.003Z,35.28
2023-01-18T21:57:02.779Z,47.03
2023-01-18T21:59:48.945Z,94.38
2023-01-18T22:02:36.098Z,59.78
2023-01-18T22:05:21.464Z,31.58
2023-01-18T22:08:07.150Z,22.55
2023-01-18T22:10:52.538Z,24.88
2023-01-18T22:13:38.497Z,21.70
2023-01-18T22:16:30.050Z,21.20
2023-01-18T22:19:16.309Z,19.75
2023-01-18T22:22:02.479Z,21.30
2023-01-18T22:24:48.767Z,34.00
2023-01-18T22:27:35.330Z,42.22
2023-01-18T22:30:20.895Z,83.80
2023-01-18T22:33:06.369Z,72.60
2023-01-18T22:35:57.597Z,42.67
2023-01-18T22:38:43.876Z,23.73
2023-01-18T22:41:29.739Z,21.35
2023-01-18T22:44:17.312Z,29.98
2023-01-18T22:47:03.324Z,26.25
2023-01-18T22:49:48.898Z,26.77
2023-01-18T22:52:34.308Z,28.33
2023-01-18T22:55:19.863Z,10.20
2023-01-18T22:58:05.217Z,8.88
2023-01-18T23:00:50.709Z,19.70
2023-01-18T23:03:36.936Z,20.65
2023-01-18T23:06:23.008Z,21.77
2023-01-18T23:09:14.687Z,33.17
2023-01-18T23:12:00.154Z,40.67
2023-01-18T23:15:04.252Z,27.80
2023-01-18T23:17:50.052Z,21.60
2023-01-18T23:20:36.783Z,10.88
2023-01-18T23:23:22.436Z,4.65
2023-01-18T23:26:07.987Z,5.57
2023-01-18T23:28:53.349Z,4.55
2023-01-18T23:31:38.823Z,11.77
2023-01-18T23:34:24.198Z,12.20
2023-01-18T23:37:09.898Z,17.00
2023-01-18T23:40:13.981Z,16.52
2023-01-18T23:43:18.050Z,13.32
2023-01-18T23:46:22.244Z,12.57
2023-01-18T23:49:28.506Z,28.35
2023-01-18T23:52:32.584Z,40.83
2023-01-18T23:55:18.005Z,6.18
2023-01-18T23:58:03.723Z,4.97
